createdAt,value
2019-05-06T00:01:55.372Z,22.46
2019-05-06T00:04:28.680Z,22.34
2019-05-06T00:07:04.155Z,22.32
2019-05-06T00:09:37.082Z,22.31
2019-05-06T00:12:10.500Z,22.52
2019-05-06T00:14:43.814Z,22.32
2019-05-06T00:17:17.171Z,22.28
2019-05-06T00:19:50.485Z,22.30
2019-05-06T00:22:23.911Z,22.22
2019-05-06T00:24:57.198Z,22.23
2019-05-06T00:27:30.999Z,22.23
2019-05-06T00:30:05.938Z,22.18
2019-05-06T00:32:40.512Z,22.14
2019-05-06T00:35:14.236Z,22.09
2019-05-06T00:37:47.652Z,22.18
2019-05-06T00:40:21.169Z,22.08
2019-05-06T00:42:54.577Z,22.08
2019-05-06T00:45:28.066Z,22.07
2019-05-06T00:48:01.408Z,22.06
2019-05-06T00:50:34.973Z,22.08
2019-05-06T00:53:08.505Z,22.05
2019-05-06T00:55:41.922Z,22.01
2019-05-06T00:58:15.332Z,21.99
2019-05-06T01:00:48.641Z,22.14
2019-05-06T01:03:24.054Z,22.04
2019-05-06T01:05:57.459Z,22.04
2019-05-06T01:08:30.808Z,21.99
2019-05-06T01:11:04.178Z,22.21
2019-05-06T01:13:37.474Z,22.08
2019-05-06T01:16:10.854Z,22.00
2019-05-06T01:18:44.217Z,21.93
2019-05-06T01:21:17.535Z,22.13
2019-05-06T01:23:50.909Z,22.01
2019-05-06T01:26:24.434Z,21.94
2019-05-06T01:28:57.832Z,21.89
2019-05-06T01:31:42.297Z,21.91
2019-05-06T01:34:06.357Z,21.82
2019-05-06T01:36:39.677Z,21.82
2019-05-06T01:39:13.858Z,21.87
2019-05-06T01:41:47.454Z,21.89
2019-05-06T01:44:20.949Z,21.81
2019-05-06T01:46:54.373Z,21.79
2019-05-06T01:49:27.746Z,21.74
2019-05-06T01:52:01.066Z,21.80
2019-05-06T01:54:35.245Z,21.76
2019-05-06T01:57:08.544Z,21.76
2019-05-06T01:59:44.332Z,21.77
2019-05-06T02:02:17.799Z,21.76
2019-05-06T02:04:51.166Z,21.73
2019-05-06T02:07:24.714Z,21.68
2019-05-06T02:09:58.067Z,21.69
2019-05-06T02:12:31.416Z,21.69
2019-05-06T02:15:06.455Z,21.96
2019-05-06T02:17:40.453Z,21.79
2019-05-06T02:20:13.977Z,21.70
2019-05-06T02:22:47.399Z,21.70
2019-05-06T02:25:20.819Z,21.74
2019-05-06T02:27:54.290Z,21.73
2019-05-06T02:30:27.687Z,21.70
2019-05-06T02:33:00.968Z,21.71
2019-05-06T02:35:34.968Z,21.66
2019-05-06T02:38:08.470Z,21.69
2019-05-06T02:40:42.650Z,21.67
2019-05-06T02:43:16.101Z,21.62
2019-05-06T02:45:52.869Z,21.60
2019-05-06T02:48:24.822Z,21.61
2019-05-06T02:50:58.119Z,21.54
2019-05-06T02:53:33.431Z,21.53
2019-05-06T02:56:06.460Z,21.54
2019-05-06T02:58:39.834Z,21.54
2019-05-06T03:01:13.672Z,21.50
2019-05-06T03:03:47.076Z,21.69
2019-05-06T03:06:23.143Z,21.49
2019-05-06T03:08:55.504Z,21.48
2019-05-06T03:11:28.842Z,21.44
2019-05-06T03:14:03.378Z,21.40
2019-05-06T03:16:38.075Z,21.45
2019-05-06T03:19:13.279Z,21.33
2019-05-06T03:21:46.591Z,21.38
2019-05-06T03:24:23.466Z,21.36
2019-05-06T03:26:57.065Z,21.31
2019-05-06T03:29:33.132Z,21.32
2019-05-06T03:32:07.464Z,21.31
2019-05-06T03:35:01.532Z,21.35
2019-05-06T03:37:17.293Z,21.42
2019-05-06T03:39:52.894Z,21.27
2019-05-06T03:42:26.531Z,21.23
2019-05-06T03:44:59.877Z,21.21
2019-05-06T03:47:34.539Z,21.16
2019-05-06T03:50:08.307Z,21.13
2019-05-06T03:52:43.046Z,21.27
2019-05-06T03:55:16.545Z,21.23
2019-05-06T03:57:49.966Z,21.33
2019-05-06T04:00:23.853Z,21.48
2019-05-06T04:02:57.244Z,21.76
2019-05-06T04:05:33.417Z,21.88
2019-05-06T04:08:07.360Z,22.10
2019-05-06T04:10:43.531Z,22.29
2019-05-06T04:13:16.961Z,22.83
2019-05-06T04:15:50.371Z,22.77
2019-05-06T04:18:24.093Z,23.00
2019-05-06T04:20:57.480Z,23.31
2019-05-06T04:23:33.052Z,23.50
2019-05-06T04:26:06.050Z,23.63
2019-05-06T04:28:39.371Z,23.76
2019-05-06T04:31:13.675Z,23.82
2019-05-06T04:34:07.326Z,23.83
2019-05-06T04:36:23.710Z,23.90
2019-05-06T04:38:57.349Z,23.88
2019-05-06T04:41:33.813Z,23.96
2019-05-06T04:44:05.801Z,24.01
2019-05-06T04:46:39.401Z,24.02
2019-05-06T04:49:14.998Z,23.99
2019-05-06T04:51:47.822Z,24.01
2019-05-06T04:54:26.146Z,23.96
2019-05-06T04:56:56.556Z,24.21
2019-05-06T04:59:32.418Z,24.07
2019-05-06T05:02:04.954Z,23.98
2019-05-06T05:04:39.422Z,23.92
2019-05-06T05:07:12.961Z,23.95
2019-05-06T05:09:47.878Z,23.88
2019-05-06T05:12:22.704Z,23.74
2019-05-06T05:14:56.318Z,23.85
2019-05-06T05:17:29.833Z,23.91
2019-05-06T05:20:05.892Z,23.99
2019-05-06T05:22:39.361Z,23.96
2019-05-06T05:25:12.683Z,23.97
2019-05-06T05:27:46.287Z,23.92
2019-05-06T05:30:19.592Z,23.88
2019-05-06T05:32:53.281Z,23.83
2019-05-06T05:35:26.684Z,23.87
2019-05-06T05:38:03.037Z,23.79
2019-05-06T05:40:37.617Z,23.74
2019-05-06T05:43:11.717Z,23.79
2019-05-06T05:45:45.175Z,23.82
2019-05-06T05:48:18.822Z,23.73
2019-05-06T05:50:52.655Z,23.76
2019-05-06T05:53:26.386Z,23.83
2019-05-06T05:55:59.726Z,23.87
2019-05-06T05:58:33.437Z,23.83
2019-05-06T06:01:07.723Z,23.66
2019-05-06T06:03:42.162Z,23.62
2019-05-06T06:06:15.845Z,23.75
2019-05-06T06:08:49.159Z,23.66
2019-05-06T06:11:22.936Z,23.99
2019-05-06T06:13:56.512Z,23.71
2019-05-06T06:16:29.863Z,23.69
2019-05-06T06:19:03.449Z,23.69
2019-05-06T06:21:36.882Z,23.68
2019-05-06T06:24:10.206Z,23.68
2019-05-06T06:26:45.204Z,23.61
2019-05-06T06:29:18.513Z,23.47
2019-05-06T06:31:52.826Z,23.52
2019-05-06T06:34:26.137Z,23.57
2019-05-06T06:36:59.739Z,23.59
2019-05-06T06:39:33.178Z,23.52
2019-05-06T06:42:06.498Z,23.66
2019-05-06T06:44:42.288Z,23.67
2019-05-06T06:47:15.140Z,23.62
2019-05-06T06:49:48.805Z,23.55
2019-05-06T06:52:23.048Z,23.46
2019-05-06T06:54:56.807Z,23.42
2019-05-06T06:57:32.315Z,23.42
2019-05-06T07:00:05.421Z,23.48
2019-05-06T07:02:40.195Z,23.53
2019-05-06T07:05:24.516Z,23.39
2019-05-06T07:07:50.094Z,23.28
2019-05-06T07:10:23.550Z,23.32
2019-05-06T07:12:56.878Z,23.36
2019-05-06T07:15:30.216Z,23.63
2019-05-06T07:18:03.582Z,23.41
2019-05-06T07:20:36.993Z,23.88
2019-05-06T07:23:12.471Z,23.70
2019-05-06T07:25:45.896Z,23.98
2019-05-06T07:28:19.211Z,23.69
2019-05-06T07:30:52.626Z,24.00
2019-05-06T07:33:26.008Z,23.73
2019-05-06T07:35:59.451Z,23.66
2019-05-06T07:38:33.123Z,23.55
2019-05-06T07:41:06.487Z,23.57
2019-05-06T07:43:41.937Z,23.54
2019-05-06T07:46:14.893Z,23.49
2019-05-06T07:48:48.202Z,23.58
2019-05-06T07:51:23.697Z,23.55
2019-05-06T07:53:56.777Z,23.51
2019-05-06T07:56:32.231Z,23.55
2019-05-06T07:59:05.175Z,23.46
2019-05-06T08:01:38.994Z,23.46
2019-05-06T08:04:12.485Z,23.47
2019-05-06T08:06:45.856Z,23.45
2019-05-06T08:09:21.992Z,23.38
2019-05-06T08:11:54.685Z,23.35
2019-05-06T08:14:28.296Z,23.54
2019-05-06T08:17:02.247Z,23.49
2019-05-06T08:19:37.066Z,23.47
2019-05-06T08:22:12.016Z,23.42
2019-05-06T08:24:45.450Z,23.36
2019-05-06T08:27:18.925Z,23.32
2019-05-06T08:29:52.615Z,23.31
2019-05-06T08:32:27.354Z,23.32
2019-05-06T08:35:03.143Z,23.35
2019-05-06T08:37:35.817Z,23.37
2019-05-06T08:40:09.227Z,23.67
2019-05-06T08:42:42.783Z,23.43
2019-05-06T08:45:16.240Z,23.32
2019-05-06T08:47:52.231Z,23.32
2019-05-06T08:50:24.968Z,23.32
2019-05-06T08:52:59.426Z,23.32
2019-05-06T08:55:33.840Z,23.42
2019-05-06T08:58:07.337Z,23.46
2019-05-06T09:00:42.788Z,23.58
2019-05-06T09:03:16.895Z,23.66
2019-05-06T09:05:50.214Z,23.73
2019-05-06T09:08:23.851Z,23.69
2019-05-06T09:10:57.212Z,23.32
2019-05-06T09:13:32.548Z,23.14
2019-05-06T09:16:05.792Z,23.05
2019-05-06T09:18:42.340Z,23.34
2019-05-06T09:21:15.098Z,23.36
2019-05-06T09:23:48.757Z,23.73
2019-05-06T09:26:22.792Z,23.65
2019-05-06T09:28:56.238Z,23.68
2019-05-06T09:31:29.590Z,23.68
2019-05-06T09:34:04.599Z,23.72
2019-05-06T09:36:43.874Z,23.83
2019-05-06T09:39:13.310Z,23.85
2019-05-06T09:41:49.003Z,23.88
2019-05-06T09:44:22.630Z,24.24
2019-05-06T09:46:56.244Z,24.03
2019-05-06T09:49:29.658Z,24.02
2019-05-06T09:52:03.113Z,23.98
2019-05-06T09:54:36.535Z,23.94
2019-05-06T09:57:09.950Z,23.99
2019-05-06T09:59:43.340Z,23.94
2019-05-06T10:02:16.887Z,23.93
2019-05-06T10:04:52.290Z,23.98
2019-05-06T10:07:25.255Z,23.94
2019-05-06T10:09:58.566Z,23.92
2019-05-06T10:12:32.914Z,23.94
2019-05-06T10:15:06.592Z,23.98
2019-05-06T10:17:42.881Z,23.98
2019-05-06T10:20:17.666Z,24.06
2019-05-06T10:22:52.435Z,24.03
2019-05-06T10:25:25.858Z,23.99
2019-05-06T10:27:59.331Z,23.99
2019-05-06T10:30:33.156Z,23.93
2019-05-06T10:33:06.662Z,23.79
2019-05-06T10:35:39.985Z,23.87
2019-05-06T10:38:25.319Z,23.81
2019-05-06T10:41:06.726Z,23.83
2019-05-06T10:43:54.568Z,23.86
2019-05-06T10:46:27.878Z,23.72
2019-05-06T10:49:02.726Z,23.75
2019-05-06T10:51:36.366Z,23.61
2019-05-06T10:54:12.290Z,23.67
2019-05-06T10:56:52.680Z,23.69
2019-05-06T10:59:22.057Z,23.65
2019-05-06T11:01:55.585Z,23.58
2019-05-06T11:04:28.928Z,23.55
2019-05-06T11:07:04.014Z,23.50
2019-05-06T11:09:37.551Z,23.55
2019-05-06T11:12:12.422Z,23.50
2019-05-06T11:14:46.862Z,23.32
2019-05-06T11:17:20.172Z,23.43
2019-05-06T11:19:53.533Z,23.38
2019-05-06T11:22:26.864Z,23.44
2019-05-06T11:25:02.931Z,23.50
2019-05-06T11:27:37.567Z,23.49
2019-05-06T11:30:12.706Z,23.37
2019-05-06T11:32:45.532Z,23.45
2019-05-06T11:35:19.194Z,23.23
2019-05-06T11:37:54.317Z,23.58
2019-05-06T11:40:27.701Z,23.49
2019-05-06T11:43:01.019Z,23.40
2019-05-06T11:45:34.365Z,23.42
2019-05-06T11:48:07.888Z,23.27
2019-05-06T11:50:42.724Z,23.44
2019-05-06T11:53:16.271Z,23.32
2019-05-06T11:55:49.612Z,23.35
2019-05-06T11:58:22.943Z,23.32
2019-05-06T12:00:56.253Z,23.30
2019-05-06T12:03:29.568Z,23.51
2019-05-06T12:06:03.839Z,23.39
2019-05-06T12:08:37.343Z,23.37
2019-05-06T12:11:12.528Z,23.29
2019-05-06T12:13:45.719Z,23.37
2019-05-06T12:16:19.121Z,23.36
2019-05-06T12:18:52.970Z,23.21
2019-05-06T12:21:26.444Z,23.18
2019-05-06T12:24:02.948Z,23.05
2019-05-06T12:26:37.750Z,23.30
2019-05-06T12:29:12.696Z,23.45
2019-05-06T12:31:46.377Z,23.50
2019-05-06T12:34:19.691Z,23.43
2019-05-06T12:36:53.027Z,23.41
2019-05-06T12:39:27.878Z,23.53
2019-05-06T12:42:01.374Z,23.71
2019-05-06T12:44:34.879Z,23.92
2019-05-06T12:47:08.243Z,24.07
2019-05-06T12:49:42.696Z,24.24
2019-05-06T12:52:16.125Z,24.35
2019-05-06T12:54:49.441Z,24.46
2019-05-06T12:57:23.379Z,24.60
2019-05-06T12:59:56.866Z,24.76
2019-05-06T13:02:32.645Z,24.90
2019-05-06T13:05:06.124Z,25.02
2019-05-06T13:07:39.450Z,25.16
2019-05-06T13:10:13.191Z,25.29
2019-05-06T13:12:48.297Z,25.39
2019-05-06T13:15:24.452Z,25.50
2019-05-06T13:17:56.702Z,25.61
2019-05-06T13:20:36.230Z,25.78
2019-05-06T13:23:15.924Z,25.90
2019-05-06T13:25:45.634Z,26.01
2019-05-06T13:28:19.085Z,25.78
2019-05-06T13:30:53.221Z,26.09
2019-05-06T13:33:28.352Z,26.16
2019-05-06T13:36:01.779Z,26.15
2019-05-06T13:38:35.176Z,26.18
2019-05-06T13:41:08.506Z,26.21
2019-05-06T13:43:43.539Z,26.22
2019-05-06T13:46:17.547Z,26.26
2019-05-06T13:48:53.073Z,26.23
2019-05-06T13:51:26.102Z,26.24
2019-05-06T13:53:59.446Z,26.16
2019-05-06T13:56:33.442Z,26.16
2019-05-06T13:59:06.856Z,26.16
2019-05-06T14:01:40.206Z,26.19
2019-05-06T14:04:14.597Z,26.14
2019-05-06T14:06:48.000Z,26.15
2019-05-06T14:09:31.432Z,26.08
2019-05-06T14:11:58.147Z,26.08
2019-05-06T14:14:32.250Z,26.05
2019-05-06T14:17:05.916Z,26.11
2019-05-06T14:19:39.234Z,26.11
2019-05-06T14:22:12.784Z,26.08
2019-05-06T14:24:46.463Z,26.05
2019-05-06T14:27:22.176Z,25.93
2019-05-06T14:29:55.672Z,26.03
2019-05-06T14:32:29.067Z,25.91
2019-05-06T14:35:02.478Z,25.93
2019-05-06T14:37:36.660Z,25.89
2019-05-06T14:40:11.904Z,25.74
2019-05-06T14:42:47.149Z,25.72
2019-05-06T14:45:22.172Z,25.64
2019-05-06T14:47:55.837Z,25.61
2019-05-06T14:50:43.048Z,25.64
2019-05-06T14:53:04.354Z,25.47
2019-05-06T14:55:37.879Z,25.43
2019-05-06T14:58:12.054Z,25.46
2019-05-06T15:00:46.476Z,25.58
2019-05-06T15:03:21.617Z,25.50
2019-05-06T15:05:54.965Z,25.39
2019-05-06T15:08:28.588Z,25.34
2019-05-06T15:11:03.132Z,25.47
2019-05-06T15:13:38.389Z,25.40
2019-05-06T15:16:13.215Z,25.39
2019-05-06T15:18:46.728Z,25.23
2019-05-06T15:21:33.970Z,25.28
2019-05-06T15:23:55.757Z,25.18
2019-05-06T15:26:29.216Z,25.28
2019-05-06T15:29:03.436Z,25.30
2019-05-06T15:31:38.350Z,25.19
2019-05-06T15:34:13.074Z,25.26
2019-05-06T15:36:46.593Z,25.14
2019-05-06T15:39:20.140Z,25.19
2019-05-06T15:41:54.072Z,25.17
2019-05-06T15:44:31.679Z,25.32
2019-05-06T15:47:03.642Z,25.30
2019-05-06T15:49:37.266Z,25.30
2019-05-06T15:52:12.462Z,25.25
2019-05-06T15:54:45.986Z,25.33
2019-05-06T15:57:19.387Z,25.36
2019-05-06T15:59:53.324Z,25.17
2019-05-06T16:02:26.880Z,25.29
2019-05-06T16:05:00.561Z,25.45
2019-05-06T16:07:37.030Z,25.38
2019-05-06T16:10:08.903Z,25.34
2019-05-06T16:12:47.005Z,25.29
2019-05-06T16:15:24.518Z,25.35
2019-05-06T16:17:55.573Z,25.33
2019-05-06T16:20:29.900Z,25.31
2019-05-06T16:23:03.807Z,25.26
2019-05-06T16:25:37.207Z,25.32
2019-05-06T16:28:12.800Z,25.18
2019-05-06T16:30:46.132Z,25.18
2019-05-06T16:33:21.899Z,25.11
2019-05-06T16:35:57.688Z,25.16
2019-05-06T16:38:32.336Z,25.16
2019-05-06T16:41:12.307Z,25.05
2019-05-06T16:43:42.837Z,25.04
2019-05-06T16:46:16.806Z,25.03
2019-05-06T16:48:52.301Z,25.28
2019-05-06T16:51:25.158Z,25.16
2019-05-06T16:53:58.491Z,25.13
2019-05-06T16:56:33.345Z,25.09
2019-05-06T16:59:06.812Z,25.09
2019-05-06T17:01:42.459Z,25.06
2019-05-06T17:04:16.389Z,25.00
2019-05-06T17:06:49.761Z,24.96
2019-05-06T17:09:27.023Z,24.95
2019-05-06T17:11:58.351Z,24.96
2019-05-06T17:14:32.507Z,24.92
2019-05-06T17:17:06.055Z,24.93
2019-05-06T17:19:39.404Z,24.80
2019-05-06T17:22:13.181Z,24.80
2019-05-06T17:24:48.537Z,24.77
2019-05-06T17:27:23.610Z,24.52
2019-05-06T17:29:56.629Z,24.60
2019-05-06T17:32:29.970Z,24.59
2019-05-06T17:35:05.533Z,24.69
2019-05-06T17:37:38.896Z,24.72
2019-05-06T17:40:14.069Z,24.52
2019-05-06T17:42:47.705Z,24.60
2019-05-06T17:45:22.271Z,24.59
2019-05-06T17:47:55.647Z,24.50
2019-05-06T17:50:28.951Z,24.44
2019-05-06T17:53:03.262Z,24.48
2019-05-06T17:55:36.581Z,24.53
2019-05-06T17:58:10.093Z,24.40
2019-05-06T18:00:43.402Z,24.48
2019-05-06T18:03:16.871Z,24.40
2019-05-06T18:05:52.526Z,24.30
2019-05-06T18:08:25.282Z,24.37
2019-05-06T18:10:58.662Z,24.46
2019-05-06T18:13:32.089Z,24.48
2019-05-06T18:16:05.421Z,24.31
2019-05-06T18:18:38.765Z,24.33
2019-05-06T18:21:12.508Z,24.38
2019-05-06T18:23:49.452Z,24.43
2019-05-06T18:26:22.947Z,24.38
2019-05-06T18:28:58.434Z,24.36
2019-05-06T18:31:33.493Z,24.34
2019-05-06T18:34:06.652Z,24.32
2019-05-06T18:36:40.068Z,24.27
2019-05-06T18:39:13.399Z,24.25
2019-05-06T18:41:46.765Z,24.23
2019-05-06T18:44:22.503Z,24.24
2019-05-06T18:46:56.693Z,24.20
2019-05-06T18:49:30.099Z,24.20
2019-05-06T18:52:03.673Z,24.14
2019-05-06T18:54:38.281Z,24.14
2019-05-06T18:57:12.989Z,24.05
2019-05-06T18:59:46.924Z,24.04
2019-05-06T19:02:22.953Z,23.97
2019-05-06T19:04:56.399Z,23.97
2019-05-06T19:07:33.265Z,23.83
2019-05-06T19:10:06.606Z,23.80
2019-05-06T19:12:42.440Z,23.77
2019-05-06T19:15:18.120Z,23.81
2019-05-06T19:17:52.662Z,23.73
2019-05-06T19:20:26.511Z,23.69
2019-05-06T19:23:02.202Z,23.72
2019-05-06T19:25:35.095Z,23.73
2019-05-06T19:28:08.399Z,23.70
2019-05-06T19:30:42.154Z,23.64
2019-05-06T19:33:15.460Z,23.55
2019-05-06T19:38:24.620Z,23.66
2019-05-06T19:40:57.930Z,23.50
2019-05-06T19:43:32.866Z,23.53
2019-05-06T19:46:07.736Z,23.50
2019-05-06T19:48:43.014Z,23.49
2019-05-06T19:51:16.349Z,23.53
2019-05-06T19:56:23.386Z,23.08
2019-05-06T19:58:57.844Z,23.46
2019-05-06T20:01:32.307Z,23.45
2019-05-06T20:04:05.794Z,23.32
2019-05-06T20:06:39.124Z,23.40
2019-05-06T20:09:12.980Z,23.40
2019-05-06T20:11:46.341Z,23.40
2019-05-06T20:14:21.918Z,23.40
2019-05-06T20:16:54.752Z,23.39
2019-05-06T20:19:31.107Z,23.33
2019-05-06T20:22:03.113Z,23.31
2019-05-06T20:24:36.506Z,23.25
2019-05-06T20:27:10.045Z,23.19
2019-05-06T20:29:43.375Z,23.31
2019-05-06T20:32:16.709Z,23.10
2019-05-06T20:34:50.270Z,22.77
2019-05-06T20:37:25.092Z,22.75
2019-05-06T20:39:58.511Z,22.60
2019-05-06T20:42:32.767Z,22.43
2019-05-06T20:45:06.797Z,22.39
2019-05-06T20:47:40.147Z,22.34
2019-05-06T20:50:13.563Z,22.26
2019-05-06T20:52:48.348Z,22.20
2019-05-06T20:55:22.881Z,22.13
2019-05-06T20:57:56.533Z,22.12
2019-05-06T21:00:30.159Z,22.10
2019-05-06T21:03:03.494Z,22.08
2019-05-06T21:05:37.073Z,22.06
2019-05-06T21:08:12.753Z,22.04
2019-05-06T21:10:49.526Z,22.12
2019-05-06T21:13:31.308Z,22.05
2019-05-06T21:15:56.483Z,22.00
2019-05-06T21:18:29.839Z,22.04
2019-05-06T21:21:03.295Z,21.98
2019-05-06T21:23:37.679Z,21.90
2019-05-06T21:26:11.116Z,21.86
2019-05-06T21:28:46.440Z,22.03
2019-05-06T21:31:19.638Z,21.91
2019-05-06T21:33:53.166Z,22.21
2019-05-06T21:36:26.817Z,22.29
2019-05-06T21:39:02.009Z,22.47
2019-05-06T21:41:36.241Z,22.45
2019-05-06T21:44:09.586Z,22.38
2019-05-06T21:46:43.159Z,22.35
2019-05-06T21:49:16.606Z,22.45
2019-05-06T21:51:49.927Z,22.38
2019-05-06T21:54:23.333Z,22.02
2019-05-06T21:56:56.595Z,22.36
2019-05-06T21:59:29.939Z,22.33
2019-05-06T22:02:03.515Z,22.27
2019-05-06T22:04:36.914Z,22.10
2019-05-06T22:07:12.102Z,22.01
2019-05-06T22:09:45.365Z,22.01
2019-05-06T22:12:19.910Z,22.05
2019-05-06T22:14:53.281Z,21.98
2019-05-06T22:17:26.841Z,21.91
2019-05-06T22:20:03.122Z,21.81
2019-05-06T22:22:35.972Z,21.88
2019-05-06T22:25:12.341Z,21.88
2019-05-06T22:27:45.272Z,21.86
2019-05-06T22:30:18.638Z,21.86
2019-05-06T22:32:52.669Z,21.77
2019-05-06T22:35:26.436Z,22.01
2019-05-06T22:38:00.193Z,21.87
2019-05-06T22:40:34.044Z,21.97
2019-05-06T22:43:07.489Z,21.90
2019-05-06T22:45:42.573Z,21.88
2019-05-06T22:48:16.380Z,21.89
2019-05-06T22:50:49.890Z,21.81
2019-05-06T22:53:24.909Z,21.77
2019-05-06T22:55:58.457Z,21.72
2019-05-06T22:58:34.378Z,21.74
2019-05-06T23:01:06.996Z,21.73
2019-05-06T23:03:42.909Z,21.72
2019-05-06T23:06:18.253Z,21.70
2019-05-06T23:08:52.664Z,21.68
2019-05-06T23:11:26.115Z,21.67
2019-05-06T23:13:59.711Z,21.64
2019-05-06T23:16:34.944Z,21.63
2019-05-06T23:19:08.423Z,21.62
2019-05-06T23:21:43.063Z,21.61
2019-05-06T23:24:16.579Z,21.68
2019-05-06T23:26:49.902Z,21.60
2019-05-06T23:29:24.875Z,21.61
2019-05-06T23:31:58.241Z,21.62
2019-05-06T23:34:32.479Z,21.58
2019-05-06T23:37:12.847Z,21.58
2019-05-06T23:40:22.368Z,21.57
2019-05-06T23:43:33.027Z,21.55
2019-05-06T23:46:42.839Z,21.51
2019-05-06T23:49:52.858Z,21.47
2019-05-06T23:53:03.251Z,21.45
2019-05-06T23:56:13.568Z,21.37
2019-05-06T23:58:46.937Z,21.34
